Time;durP1;ratioP1;P1;durP2;ratioP2;P2;SDS_P1;SDS_P2;PMS_P1;PMS_P2;Temp;Humidity;BMP_temperature;BMP_pressure;BME280_temperature;BME280_humidity;BME280_pressure;Samples;Min_cycle;Max_cycle;Signal;HPM_P1;HPM_P2
2021/01/08 00:00:24;;;;;;;10.80;6.07;;;3.20;99.90;;;;;;5072330;28;20201;-76
2021/01/08 00:02:52;;;;;;;12.97;5.80;;;3.20;99.90;;;;;;5053872;28;20220;-75
2021/01/08 00:05:18;;;;;;;9.87;5.30;;;3.30;99.90;;;;;;5053778;28;20317;-76
2021/01/08 00:07:45;;;;;;;13.50;5.67;;;3.20;99.90;;;;;;5053232;28;20214;-76
2021/01/08 00:10:12;;;;;;;9.57;5.80;;;3.20;99.90;;;;;;5053409;28;20694;-76
2021/01/08 00:12:38;;;;;;;14.40;5.37;;;3.10;99.90;;;;;;5053238;28;20567;-76
2021/01/08 00:15:06;;;;;;;12.50;5.23;;;3.10;99.90;;;;;;5053657;28;20213;-75
2021/01/08 00:17:32;;;;;;;8.23;5.07;;;3.20;99.90;;;;;;5053297;28;20211;-76
2021/01/08 00:20:00;;;;;;;10.67;4.70;;;3.20;99.90;;;;;;5053295;28;20213;-75
2021/01/08 00:22:27;;;;;;;10.37;4.93;;;3.20;99.90;;;;;;5053421;28;20240;-76
2021/01/08 00:24:54;;;;;;;10.13;5.20;;;3.20;99.90;;;;;;5053477;28;20205;-76
2021/01/08 00:27:20;;;;;;;8.43;4.97;;;3.30;99.90;;;;;;5052596;28;20204;-76
2021/01/08 00:29:47;;;;;;;11.20;5.10;;;3.30;99.90;;;;;;5052944;28;20656;-76
2021/01/08 00:32:14;;;;;;;8.03;4.57;;;3.30;99.90;;;;;;5053249;28;20232;-76
2021/01/08 00:34:40;;;;;;;9.20;4.80;;;3.30;99.90;;;;;;5052781;28;20205;-76
2021/01/08 00:37:08;;;;;;;15.00;5.17;;;3.30;99.90;;;;;;5053236;28;20235;-76
2021/01/08 00:39:36;;;;;;;11.60;5.10;;;3.30;99.90;;;;;;5052960;28;20206;-76
2021/01/08 00:42:03;;;;;;;11.63;5.03;;;3.20;99.90;;;;;;5053046;28;20209;-76
2021/01/08 00:44:29;;;;;;;13.23;4.70;;;3.30;99.90;;;;;;5052548;28;20211;-76
2021/01/08 00:46:55;;;;;;;11.07;4.53;;;3.30;99.90;;;;;;5052883;28;20215;-76
2021/01/08 00:49:22;;;;;;;9.03;4.50;;;3.30;99.90;;;;;;5052678;28;20720;-76
2021/01/08 00:51:49;;;;;;;8.87;4.57;;;3.30;99.90;;;;;;5052465;28;20591;-76
2021/01/08 00:54:16;;;;;;;9.87;5.10;;;3.40;99.90;;;;;;5052725;28;20205;-76
2021/01/08 00:56:42;;;;;;;9.97;5.00;;;3.40;99.90;;;;;;5052874;28;20579;-76
2021/01/08 00:59:08;;;;;;;9.83;4.60;;;3.40;99.90;;;;;;5057737;28;20208;-76
2021/01/08 01:01:35;;;;;;;12.17;5.33;;;3.50;99.90;;;;;;5062221;28;20201;-76
2021/01/08 01:04:01;;;;;;;11.07;4.97;;;3.50;99.90;;;;;;5053743;28;20205;-76
2021/01/08 01:06:29;;;;;;;9.50;5.20;;;3.50;99.90;;;;;;5053636;28;20211;-76
2021/01/08 01:08:56;;;;;;;11.20;5.20;;;3.50;99.90;;;;;;5052923;28;20201;-76
2021/01/08 01:11:25;;;;;;;8.87;4.73;;;3.40;99.90;;;;;;5052826;28;20220;-76
2021/01/08 01:13:55;;;;;;;10.33;5.23;;;3.40;99.90;;;;;;5053299;28;20205;-75
2021/01/08 01:16:22;;;;;;;11.50;5.23;;;3.30;99.90;;;;;;5052522;28;20199;-76
2021/01/08 01:18:50;;;;;;;8.83;4.90;;;3.30;99.90;;;;;;5052901;28;20209;-76
2021/01/08 01:21:17;;;;;;;9.90;5.30;;;3.30;99.90;;;;;;5053078;28;20196;-76
2021/01/08 01:23:43;;;;;;;11.27;4.50;;;3.30;99.90;;;;;;5052372;28;20201;-76
2021/01/08 01:26:09;;;;;;;9.10;4.80;;;3.20;99.90;;;;;;5052586;28;20216;-76
2021/01/08 01:28:37;;;;;;;11.83;5.20;;;3.20;99.90;;;;;;5052503;28;20648;-76
2021/01/08 01:31:04;;;;;;;7.83;4.67;;;3.30;99.90;;;;;;5052169;28;20227;-76
2021/01/08 01:33:30;;;;;;;10.40;5.53;;;3.30;99.90;;;;;;5052755;28;20206;-75
2021/01/08 01:35:57;;;;;;;11.70;4.80;;;3.30;99.90;;;;;;5063546;28;20212;-76
2021/01/08 01:38:24;;;;;;;11.17;4.80;;;3.40;99.90;;;;;;5072095;28;20202;-76
2021/01/08 01:40:50;;;;;;;10.37;4.83;;;3.40;99.90;;;;;;5072115;28;20299;-76
2021/01/08 01:43:18;;;;;;;9.43;4.67;;;3.40;99.90;;;;;;5071991;28;20204;-75
2021/01/08 01:45:45;;;;;;;10.20;4.67;;;3.40;99.90;;;;;;5072291;28;20211;-75
2021/01/08 01:48:12;;;;;;;7.83;4.90;;;3.40;99.90;;;;;;5072056;28;20679;-75
2021/01/08 01:50:38;;;;;;;8.10;4.37;;;3.40;99.90;;;;;;5071980;28;20217;-75
2021/01/08 01:53:05;;;;;;;10.00;5.27;;;3.30;99.90;;;;;;5071884;28;20201;-76
2021/01/08 01:55:31;;;;;;;7.00;4.73;;;3.30;99.90;;;;;;5072117;28;20210;-75
2021/01/08 01:57:59;;;;;;;11.80;5.07;;;3.30;99.90;;;;;;5057938;28;20664;-75
2021/01/08 02:00:26;;;;;;;10.00;4.87;;;3.30;99.90;;;;;;5071873;28;20643;-76
2021/01/08 02:02:57;;;;;;;9.53;5.00;;;3.20;99.90;;;;;;5071964;28;20204;-76
2021/01/08 02:05:25;;;;;;;9.03;5.30;;;3.20;99.90;;;;;;5071769;28;20216;-76
2021/01/08 02:07:58;;;;;;;9.07;5.17;;;3.10;99.90;;;;;;5071957;28;20208;-75
2021/01/08 02:10:28;;;;;;;9.27;5.20;;;3.10;99.90;;;;;;5071826;28;20228;-76
2021/01/08 02:12:58;;;;;;;12.13;5.43;;;3.10;99.90;;;;;;5071602;28;20207;-76
2021/01/08 02:15:26;;;;;;;13.97;5.30;;;3.10;99.90;;;;;;5072065;28;20201;-76
2021/01/08 02:17:53;;;;;;;14.23;5.40;;;3.10;99.90;;;;;;5071752;28;20204;-76
2021/01/08 02:20:22;;;;;;;11.17;5.87;;;3.10;99.90;;;;;;5071611;28;20233;-76
2021/01/08 02:22:52;;;;;;;10.50;5.60;;;3.10;99.90;;;;;;5071775;28;20250;-76
2021/01/08 02:25:22;;;;;;;11.17;5.50;;;3.00;99.90;;;;;;5071827;28;20200;-76
2021/01/08 02:28:17;;;;;;;10.00;5.23;;;3.10;99.90;;;;;;5071702;28;20220;-76
2021/01/08 02:30:44;;;;;;;11.03;5.50;;;3.10;99.90;;;;;;5069085;28;20704;-76
2021/01/08 02:33:11;;;;;;;8.70;4.90;;;3.20;99.90;;;;;;5071495;28;20853;-76
2021/01/08 02:35:38;;;;;;;9.93;4.97;;;3.20;99.90;;;;;;5071544;28;20209;-76
2021/01/08 02:38:05;;;;;;;10.30;5.07;;;3.20;99.90;;;;;;5071861;28;20239;-76
2021/01/08 02:40:33;;;;;;;9.60;4.77;;;3.30;99.90;;;;;;5071727;28;20200;-76
2021/01/08 02:43:02;;;;;;;12.23;5.17;;;3.30;99.90;;;;;;5071859;28;20214;-76
2021/01/08 02:45:28;;;;;;;7.67;4.60;;;3.30;99.90;;;;;;5071401;28;20200;-76
2021/01/08 02:47:55;;;;;;;9.37;4.60;;;3.20;99.90;;;;;;5071582;28;20212;-76
2021/01/08 02:50:21;;;;;;;7.23;4.47;;;3.20;99.90;;;;;;5072998;28;20559;-76
2021/01/08 02:52:51;;;;;;;10.63;4.53;;;3.30;99.90;;;;;;5075367;28;20687;-76
2021/01/08 02:55:21;;;;;;;7.70;4.17;;;3.20;99.90;;;;;;5074920;28;20208;-76
2021/01/08 02:57:49;;;;;;;10.53;4.40;;;3.30;99.90;;;;;;5075356;28;20330;-76
2021/01/08 03:00:17;;;;;;;8.70;4.60;;;3.30;99.90;;;;;;5074808;28;20296;-76
2021/01/08 03:02:43;;;;;;;10.77;4.93;;;3.30;99.90;;;;;;5074600;28;20215;-76
2021/01/08 03:05:11;;;;;;;9.10;5.13;;;3.30;99.90;;;;;;5074873;28;20215;-76
2021/01/08 03:07:38;;;;;;;9.93;4.87;;;3.30;99.90;;;;;;5075082;28;20278;-76
2021/01/08 03:10:05;;;;;;;9.23;5.40;;;3.30;99.90;;;;;;5074848;28;20257;-75
2021/01/08 03:12:33;;;;;;;10.50;5.23;;;3.30;99.90;;;;;;5074494;28;20216;-76
2021/01/08 03:15:04;;;;;;;10.03;5.60;;;3.30;99.90;;;;;;5074815;28;20207;-76
2021/01/08 03:17:31;;;;;;;12.30;4.97;;;3.30;99.90;;;;;;5074349;28;20208;-75
2021/01/08 03:19:57;;;;;;;10.20;5.87;;;3.30;99.90;;;;;;5074518;28;20220;-75
2021/01/08 03:22:23;;;;;;;10.80;5.47;;;3.20;99.90;;;;;;5074483;28;20756;-76
2021/01/08 03:24:50;;;;;;;10.27;5.20;;;3.20;99.90;;;;;;5074587;28;20200;-76
2021/01/08 03:27:16;;;;;;;9.60;5.50;;;3.20;99.90;;;;;;5074593;28;20213;-76
2021/01/08 03:29:42;;;;;;;11.17;5.77;;;3.10;99.90;;;;;;5073974;28;20200;-76
2021/01/08 03:32:09;;;;;;;11.83;5.43;;;3.20;99.90;;;;;;5074079;28;20804;-76
2021/01/08 03:34:36;;;;;;;11.60;5.70;;;3.20;99.90;;;;;;5074073;28;20670;-76
2021/01/08 03:37:02;;;;;;;11.33;5.90;;;3.20;99.90;;;;;;5074396;28;20205;-76
2021/01/08 03:39:28;;;;;;;11.67;6.27;;;3.20;99.90;;;;;;5074005;28;20204;-76
2021/01/08 03:41:54;;;;;;;11.27;6.33;;;3.20;99.90;;;;;;5074206;28;20200;-76
2021/01/08 03:44:21;;;;;;;13.33;6.23;;;3.30;99.90;;;;;;5073984;28;20200;-75
2021/01/08 03:46:47;;;;;;;11.00;6.03;;;3.20;99.90;;;;;;5073859;28;20205;-75
2021/01/08 03:49:14;;;;;;;13.23;6.40;;;3.20;99.90;;;;;;5074093;28;20205;-76
2021/01/08 03:51:40;;;;;;;14.53;6.03;;;3.20;99.90;;;;;;5073913;28;20228;-76
2021/01/08 03:54:07;;;;;;;16.60;6.90;;;3.20;99.90;;;;;;5073955;28;20253;-76
2021/01/08 03:56:33;;;;;;;11.30;6.27;;;3.20;99.90;;;;;;5073798;28;20654;-76
2021/01/08 03:58:59;;;;;;;12.77;6.80;;;3.20;99.90;;;;;;5073784;28;20208;-75
2021/01/08 04:01:25;;;;;;;12.37;6.23;;;3.20;99.90;;;;;;5072489;28;20220;-76
2021/01/08 04:03:52;;;;;;;13.40;7.00;;;3.20;99.90;;;;;;5073624;28;20248;-75
2021/01/08 04:06:19;;;;;;;11.03;6.33;;;3.30;99.90;;;;;;5073604;28;20669;-76
2021/01/08 04:08:45;;;;;;;11.30;6.10;;;3.30;99.90;;;;;;5073611;28;20212;-76
2021/01/08 04:11:11;;;;;;;12.90;6.63;;;3.30;99.90;;;;;;5073289;28;20654;-75
2021/01/08 04:13:38;;;;;;;13.03;7.03;;;3.30;99.90;;;;;;5073514;28;20204;-76
2021/01/08 04:16:05;;;;;;;12.37;7.27;;;3.30;99.90;;;;;;5073425;28;20261;-76
2021/01/08 04:18:31;;;;;;;13.53;7.27;;;3.30;99.90;;;;;;5073340;28;20618;-76
2021/01/08 04:20:57;;;;;;;15.77;6.67;;;3.20;99.90;;;;;;5073137;28;20208;-76
2021/01/08 04:23:24;;;;;;;14.77;7.37;;;3.20;99.90;;;;;;5073377;28;20294;-76
2021/01/08 04:25:51;;;;;;;15.87;8.10;;;3.20;99.90;;;;;;5073530;28;20211;-76
2021/01/08 04:28:19;;;;;;;20.23;8.63;;;3.20;99.90;;;;;;5073131;28;20215;-76
2021/01/08 04:30:45;;;;;;;16.27;8.07;;;3.10;99.90;;;;;;5073363;28;20223;-76
2021/01/08 04:33:11;;;;;;;22.03;8.20;;;3.10;99.90;;;;;;5073156;28;20204;-75
2021/01/08 04:35:38;;;;;;;21.47;8.60;;;3.10;99.90;;;;;;5073309;28;20290;-76
2021/01/08 04:38:04;;;;;;;14.83;8.00;;;3.10;99.90;;;;;;5073343;28;20205;-76
2021/01/08 04:40:31;;;;;;;18.20;8.67;;;3.10;99.90;;;;;;5073214;28;20754;-76
2021/01/08 04:42:58;;;;;;;13.60;8.37;;;3.10;99.90;;;;;;5072812;28;20208;-75
2021/01/08 04:45:25;;;;;;;17.20;8.23;;;3.20;99.90;;;;;;5072979;28;20205;-76
2021/01/08 04:47:53;;;;;;;15.77;8.40;;;3.20;99.90;;;;;;5072910;28;20205;-76
2021/01/08 04:50:22;;;;;;;18.63;8.97;;;3.20;99.90;;;;;;5072549;28;20892;-75
2021/01/08 04:52:49;;;;;;;17.83;9.17;;;3.20;99.90;;;;;;5072610;28;20203;-76
2021/01/08 04:55:17;;;;;;;19.70;8.53;;;3.20;99.90;;;;;;5072383;28;20200;-76
2021/01/08 04:57:47;;;;;;;17.53;8.63;;;3.30;99.90;;;;;;5072678;28;20545;-76
2021/01/08 05:00:14;;;;;;;16.30;8.03;;;3.20;99.90;;;;;;5073120;28;20200;-76
2021/01/08 05:02:42;;;;;;;17.70;9.10;;;3.20;99.90;;;;;;5072197;28;20562;-76
2021/01/08 05:05:09;;;;;;;21.63;9.80;;;3.20;99.90;;;;;;5072936;28;20222;-75
2021/01/08 05:07:35;;;;;;;17.73;9.43;;;3.20;99.90;;;;;;5072396;28;20218;-76
2021/01/08 05:10:02;;;;;;;20.77;9.90;;;3.10;99.90;;;;;;5072236;28;20658;-76
2021/01/08 05:12:38;;;;;;;18.93;10.03;;;3.10;99.90;;;;;;5071549;28;20224;-76
2021/01/08 05:15:09;;;;;;;20.57;10.13;;;3.10;99.90;;;;;;5072698;28;20241;-76
2021/01/08 05:17:35;;;;;;;20.07;9.03;;;3.10;99.90;;;;;;5072278;28;20197;-76
2021/01/08 05:20:03;;;;;;;17.67;9.60;;;3.10;99.90;;;;;;5072289;28;20220;-75
2021/01/08 05:22:29;;;;;;;21.40;12.87;;;3.00;99.90;;;;;;5068958;28;20546;-75
2021/01/08 05:25:01;;;;;;;19.93;10.40;;;3.00;99.90;;;;;;5067377;28;20249;-76
2021/01/08 05:27:28;;;;;;;19.77;10.93;;;3.00;99.90;;;;;;5066167;28;20242;-75
2021/01/08 05:29:55;;;;;;;19.87;9.70;;;3.00;99.90;;;;;;5072137;28;20253;-75
2021/01/08 05:32:23;;;;;;;19.53;9.63;;;3.00;99.90;;;;;;5071828;28;20220;-75
2021/01/08 05:34:51;;;;;;;21.03;10.47;;;3.00;99.90;;;;;;5069562;28;20212;-75
2021/01/08 05:37:18;;;;;;;21.33;9.47;;;3.00;99.90;;;;;;5070338;28;20204;-76
2021/01/08 05:39:45;;;;;;;22.97;10.60;;;2.90;99.90;;;;;;5059092;28;20208;-76
2021/01/08 05:42:12;;;;;;;18.47;9.93;;;3.00;99.90;;;;;;5065890;28;20207;-75
2021/01/08 05:44:39;;;;;;;16.93;9.17;;;2.90;99.90;;;;;;5071802;28;20653;-75
2021/01/08 05:47:06;;;;;;;20.20;10.03;;;3.00;99.90;;;;;;5071649;28;20297;-76
2021/01/08 05:49:36;;;;;;;21.50;10.60;;;3.10;99.90;;;;;;5070953;28;20215;-76
2021/01/08 05:52:02;;;;;;;20.63;11.27;;;3.10;99.90;;;;;;5058540;28;20220;-76
2021/01/08 05:54:29;;;;;;;21.07;10.27;;;3.10;99.90;;;;;;5061801;28;20200;-76
2021/01/08 05:56:55;;;;;;;19.93;10.77;;;3.00;99.90;;;;;;5066893;28;20205;-75
2021/01/08 05:59:25;;;;;;;19.03;10.17;;;3.00;99.90;;;;;;5071845;28;20196;-76
2021/01/08 06:01:55;;;;;;;23.67;10.90;;;3.00;99.90;;;;;;5066411;28;20205;-76
2021/01/08 06:04:27;;;;;;;18.40;10.30;;;2.90;99.90;;;;;;5064987;28;20208;-76
2021/01/08 06:06:55;;;;;;;21.00;10.27;;;2.90;99.90;;;;;;5059812;28;20207;-75
2021/01/08 06:09:23;;;;;;;17.53;9.80;;;3.00;99.90;;;;;;5059363;28;20231;-76
2021/01/08 06:11:49;;;;;;;20.03;10.40;;;2.90;99.90;;;;;;5057580;28;20281;-76
2021/01/08 06:14:17;;;;;;;20.57;9.97;;;2.90;99.90;;;;;;5061959;28;20216;-76
2021/01/08 06:16:45;;;;;;;20.27;10.00;;;3.00;99.90;;;;;;5062434;28;20204;-75
2021/01/08 06:19:13;;;;;;;20.83;10.87;;;2.90;99.90;;;;;;5065042;28;20215;-76
2021/01/08 06:21:42;;;;;;;20.17;9.60;;;2.90;99.90;;;;;;5066947;28;20204;-76
2021/01/08 06:24:13;;;;;;;22.47;10.53;;;3.00;99.90;;;;;;5058909;28;20200;-76
2021/01/08 06:26:41;;;;;;;22.73;10.30;;;2.90;99.90;;;;;;5069516;28;20670;-76
2021/01/08 06:29:17;;;;;;;19.27;10.40;;;2.90;99.90;;;;;;5068401;28;20201;-76
2021/01/08 06:31:47;;;;;;;20.53;10.83;;;2.90;99.90;;;;;;5074316;28;20207;-75
2021/01/08 06:34:22;;;;;;;20.13;10.30;;;2.90;99.90;;;;;;5075162;28;20192;-76
2021/01/08 06:37:04;;;;;;;20.63;10.33;;;2.80;99.90;;;;;;5068325;28;20199;-76
2021/01/08 06:39:35;;;;;;;27.03;11.17;;;2.80;99.90;;;;;;5069927;28;20718;-76
2021/01/08 06:42:02;;;;;;;21.97;11.10;;;2.80;99.90;;;;;;5062361;28;20215;-75
2021/01/08 06:44:30;;;;;;;22.77;11.03;;;2.90;99.90;;;;;;5070006;28;20259;-76
2021/01/08 06:46:58;;;;;;;22.57;11.20;;;2.90;99.90;;;;;;5056774;28;20213;-76
2021/01/08 06:49:25;;;;;;;21.33;11.00;;;3.00;99.90;;;;;;5054867;28;20205;-76
2021/01/08 06:51:51;;;;;;;24.90;12.07;;;3.00;99.90;;;;;;5054303;28;20248;-76
2021/01/08 06:54:17;;;;;;;22.77;11.10;;;3.00;99.90;;;;;;5056965;28;20205;-76
2021/01/08 06:56:45;;;;;;;26.10;11.37;;;3.00;99.90;;;;;;5066842;28;20214;-76
2021/01/08 06:59:13;;;;;;;24.73;12.10;;;2.80;99.90;;;;;;5074553;28;20656;-76
2021/01/08 07:01:54;;;;;;;22.67;11.23;;;2.80;99.90;;;;;;5063572;28;20395;-76
2021/01/08 07:04:25;;;;;;;24.03;11.87;;;2.90;99.90;;;;;;5055728;28;20205;-75
2021/01/08 07:06:53;;;;;;;26.50;12.43;;;2.80;99.90;;;;;;5067165;28;20538;-76
2021/01/08 07:09:19;;;;;;;25.80;12.20;;;2.80;99.90;;;;;;5063987;28;20296;-76
2021/01/08 07:11:54;;;;;;;25.63;11.37;;;2.80;99.90;;;;;;5067689;28;20224;-76
2021/01/08 07:14:23;;;;;;;26.73;12.33;;;2.70;99.90;;;;;;5074326;28;20199;-76
2021/01/08 07:16:51;;;;;;;28.93;12.77;;;2.70;99.90;;;;;;5069202;28;20788;-76
2021/01/08 07:19:19;;;;;;;26.07;12.77;;;2.80;99.90;;;;;;5073964;28;20226;-76
2021/01/08 07:21:47;;;;;;;27.00;12.47;;;2.60;99.90;;;;;;5073425;28;20266;-76
2021/01/08 07:24:15;;;;;;;30.40;13.13;;;2.70;99.90;;;;;;5072901;28;20233;-77
2021/01/08 07:26:42;;;;;;;32.10;13.73;;;2.60;99.90;;;;;;5072690;28;20200;-76
2021/01/08 07:29:09;;;;;;;26.87;13.07;;;2.60;99.90;;;;;;5072512;28;20189;-76
2021/01/08 07:31:38;;;;;;;30.10;13.47;;;2.60;99.90;;;;;;5071974;28;20227;-76
2021/01/08 07:34:05;;;;;;;30.70;13.40;;;2.70;99.90;;;;;;5071849;28;20257;-76
2021/01/08 07:36:33;;;;;;;30.90;14.30;;;2.70;99.90;;;;;;5071768;28;20192;-76
2021/01/08 07:39:00;;;;;;;31.57;14.33;;;2.60;99.90;;;;;;5072195;28;20204;-76
2021/01/08 07:41:33;;;;;;;37.10;14.17;;;2.60;99.90;;;;;;5072385;28;20273;-76
2021/01/08 07:43:59;;;;;;;26.37;13.17;;;2.60;99.90;;;;;;5073903;28;20281;-76
2021/01/08 07:46:31;;;;;;;31.33;13.43;;;2.70;99.90;;;;;;5073613;28;20674;-76
2021/01/08 07:48:59;;;;;;;33.67;13.50;;;2.60;99.90;;;;;;5074295;28;20205;-76
2021/01/08 07:51:44;;;;;;;34.23;14.23;;;2.60;99.90;;;;;;5073860;28;20220;-76
2021/01/08 07:54:11;;;;;;;31.97;14.20;;;2.50;99.90;;;;;;5073949;28;20639;-76
2021/01/08 07:57:05;;;;;;;31.60;13.80;;;2.60;99.90;;;;;;5073998;28;20205;-76
2021/01/08 07:59:31;;;;;;;34.03;14.80;;;2.70;99.90;;;;;;5067550;28;20212;-76
2021/01/08 08:01:58;;;;;;;32.10;14.17;;;2.70;99.90;;;;;;5051205;28;20778;-76
2021/01/08 08:04:28;;;;;;;34.47;14.33;;;2.70;99.90;;;;;;5069877;28;20196;-76
2021/01/08 08:06:55;;;;;;;34.17;14.73;;;2.70;99.90;;;;;;5063076;28;20211;-76
2021/01/08 08:09:22;;;;;;;31.77;14.20;;;2.70;99.90;;;;;;5070183;28;20244;-76
2021/01/08 08:11:48;;;;;;;32.70;14.17;;;2.80;99.90;;;;;;5053412;28;20642;-76
2021/01/08 08:14:17;;;;;;;28.57;13.33;;;2.80;99.90;;;;;;5055028;28;20222;-76
2021/01/08 08:16:44;;;;;;;33.97;14.47;;;2.80;99.90;;;;;;5073471;28;20205;-76
2021/01/08 08:19:11;;;;;;;38.30;15.67;;;2.80;99.90;;;;;;5073316;28;20250;-76
2021/01/08 08:21:38;;;;;;;30.87;14.17;;;2.70;99.90;;;;;;5073861;28;20190;-75
2021/01/08 08:24:06;;;;;;;29.13;13.97;;;2.80;99.90;;;;;;5072450;28;20200;-76
2021/01/08 08:26:33;;;;;;;45.00;20.98;;;2.90;99.90;;;;;;5052151;28;20450;-76
2021/01/08 08:29:01;;;;;;;41.53;17.03;;;3.00;99.90;;;;;;5053311;28;20241;-75
2021/01/08 08:31:29;;;;;;;39.73;15.97;;;3.00;99.90;;;;;;5053118;28;20728;-75
2021/01/08 08:33:56;;;;;;;41.30;15.73;;;3.10;99.90;;;;;;5054488;28;20204;-75
2021/01/08 08:36:25;;;;;;;37.83;16.00;;;3.10;99.90;;;;;;5053932;28;20201;-75
2021/01/08 08:39:04;;;;;;;38.47;15.50;;;3.20;99.90;;;;;;5052921;28;20205;-76
2021/01/08 08:41:32;;;;;;;39.27;15.43;;;3.20;99.90;;;;;;5053427;28;20193;-76
2021/01/08 08:44:02;;;;;;;31.87;14.73;;;3.20;99.90;;;;;;5052736;28;20653;-75
2021/01/08 08:46:50;;;;;;;32.87;14.67;;;3.20;99.90;;;;;;5052734;28;20246;-75
2021/01/08 08:49:18;;;;;;;33.87;15.13;;;3.20;99.90;;;;;;5052781;28;20242;-75
2021/01/08 08:51:46;;;;;;;36.47;15.77;;;3.30;99.90;;;;;;5052708;28;20228;-76
2021/01/08 08:54:12;;;;;;;35.73;15.53;;;3.20;99.90;;;;;;5052539;28;20700;-76
2021/01/08 08:56:48;;;;;;;36.30;15.87;;;3.20;99.90;;;;;;5052739;28;20238;-76
2021/01/08 08:59:15;;;;;;;33.57;14.30;;;3.20;99.90;;;;;;5052686;28;20201;-76
2021/01/08 09:01:46;;;;;;;29.83;14.13;;;3.20;99.90;;;;;;5052373;28;20197;-77
2021/01/08 09:04:13;;;;;;;32.27;14.30;;;3.20;99.90;;;;;;5065643;28;20207;-76
2021/01/08 09:06:45;;;;;;;32.93;15.27;;;3.20;99.90;;;;;;5052423;28;20607;-76
2021/01/08 09:09:21;;;;;;;30.90;14.60;;;3.30;99.90;;;;;;5052613;28;20202;-76
2021/01/08 09:12:01;;;;;;;31.40;15.13;;;3.40;99.90;;;;;;5052372;28;20323;-76
2021/01/08 09:14:32;;;;;;;31.30;15.33;;;3.40;99.90;;;;;;5052354;28;20301;-76
2021/01/08 09:17:04;;;;;;;31.20;13.73;;;3.50;99.90;;;;;;5052576;28;20224;-76
2021/01/08 09:19:37;;;;;;;28.77;14.50;;;3.40;99.90;;;;;;5052093;28;20303;-77
2021/01/08 09:22:06;;;;;;;30.10;14.17;;;3.60;99.90;;;;;;5067655;28;20207;-77
2021/01/08 09:24:33;;;;;;;30.03;13.97;;;3.70;99.90;;;;;;5071530;28;20570;-76
2021/01/08 09:27:00;;;;;;;31.73;14.53;;;3.70;99.90;;;;;;5071150;28;20704;-76
2021/01/08 09:29:29;;;;;;;28.17;14.10;;;3.70;99.90;;;;;;5066510;28;20201;-76
2021/01/08 09:31:56;;;;;;;29.30;13.20;;;3.80;99.90;;;;;;5071796;28;20228;-76
2021/01/08 09:34:24;;;;;;;31.00;14.60;;;3.90;99.90;;;;;;5071848;28;20295;-75
2021/01/08 09:36:53;;;;;;;28.33;13.83;;;3.80;99.90;;;;;;5072296;28;20271;-76
2021/01/08 09:39:20;;;;;;;31.47;14.33;;;3.90;99.90;;;;;;5072025;28;20638;-76
2021/01/08 09:41:55;;;;;;;25.17;13.33;;;3.90;99.90;;;;;;5072139;28;20238;-76
2021/01/08 09:44:30;;;;;;;27.17;12.27;;;3.90;99.90;;;;;;5072034;28;20295;-76
2021/01/08 09:46:59;;;;;;;30.47;13.10;;;3.90;99.90;;;;;;5071971;28;20203;-77
2021/01/08 09:49:26;;;;;;;25.43;13.53;;;4.00;99.90;;;;;;5071929;28;20300;-77
2021/01/08 09:52:02;;;;;;;30.73;13.40;;;4.00;99.90;;;;;;5054292;28;20695;-76
2021/01/08 09:54:42;;;;;;;24.53;12.73;;;4.10;99.90;;;;;;5052128;28;20235;-77
2021/01/08 09:57:08;;;;;;;30.47;13.23;;;4.20;99.90;;;;;;5051703;28;20667;-76
2021/01/08 09:59:35;;;;;;;28.13;13.03;;;4.20;99.90;;;;;;5072575;28;20303;-77
2021/01/08 10:02:05;;;;;;;29.47;13.10;;;4.20;99.90;;;;;;5074966;28;20630;-77
2021/01/08 10:04:32;;;;;;;26.37;12.27;;;4.40;99.90;;;;;;5075717;28;20211;-77
2021/01/08 10:07:01;;;;;;;23.53;12.23;;;4.40;99.90;;;;;;5075451;28;20644;-76
2021/01/08 10:09:48;;;;;;;24.47;12.40;;;4.50;99.90;;;;;;5076149;28;20211;-76
2021/01/08 10:12:16;;;;;;;26.47;11.77;;;4.60;99.90;;;;;;5075613;28;20225;-77
2021/01/08 10:14:42;;;;;;;28.40;12.03;;;4.60;99.90;;;;;;5075242;28;20349;-76
2021/01/08 10:17:10;;;;;;;24.23;11.67;;;4.60;99.90;;;;;;5076100;28;20779;-75
2021/01/08 10:19:36;;;;;;;32.23;12.87;;;4.70;99.90;;;;;;5074978;28;20253;-76
2021/01/08 10:22:03;;;;;;;23.27;11.67;;;4.80;99.90;;;;;;5075745;28;20239;-76
2021/01/08 10:24:31;;;;;;;25.60;11.90;;;5.00;99.90;;;;;;5075354;28;20211;-76
2021/01/08 10:26:57;;;;;;;24.77;11.50;;;5.20;99.90;;;;;;5074224;28;20212;-76
2021/01/08 10:29:38;;;;;;;23.17;11.17;;;5.20;99.90;;;;;;5063700;28;20220;-77
2021/01/08 10:32:06;;;;;;;21.53;11.53;;;5.30;99.90;;;;;;5075160;28;20323;-76
2021/01/08 10:34:36;;;;;;;19.60;10.87;;;5.40;99.90;;;;;;5075446;28;20209;-76
2021/01/08 10:37:03;;;;;;;25.33;11.73;;;5.50;99.90;;;;;;5075387;28;20204;-77
2021/01/08 10:39:29;;;;;;;21.50;10.40;;;5.70;99.90;;;;;;5075086;28;20202;-77
2021/01/08 10:41:56;;;;;;;21.13;10.57;;;5.70;99.90;;;;;;5075373;28;20327;-77
2021/01/08 10:44:23;;;;;;;19.47;11.03;;;5.70;99.90;;;;;;5074726;28;20295;-76
2021/01/08 10:46:49;;;;;;;19.70;10.73;;;5.70;99.90;;;;;;5075115;28;20328;-75
2021/01/08 10:49:15;;;;;;;20.10;10.40;;;5.70;99.90;;;;;;5074952;28;20205;-76
2021/01/08 10:51:42;;;;;;;20.07;10.27;;;5.50;99.90;;;;;;5075090;28;20279;-75
2021/01/08 10:54:15;;;;;;;20.50;10.63;;;5.50;99.90;;;;;;5069023;28;20240;-76
2021/01/08 10:56:42;;;;;;;19.20;10.53;;;5.40;99.90;;;;;;5074834;28;20213;-76
2021/01/08 10:59:11;;;;;;;19.60;10.57;;;5.60;99.90;;;;;;5070978;28;20698;-75
2021/01/08 11:01:41;;;;;;;21.10;11.10;;;5.60;99.90;;;;;;5054806;28;20205;-75
2021/01/08 11:04:08;;;;;;;16.00;9.53;;;5.70;99.90;;;;;;5054391;28;20612;-75
2021/01/08 11:06:35;;;;;;;21.63;10.90;;;5.80;99.90;;;;;;5054444;28;20264;-75
2021/01/08 11:09:01;;;;;;;20.53;10.63;;;5.70;99.90;;;;;;5062513;28;20558;-75
2021/01/08 11:11:28;;;;;;;21.10;10.83;;;5.60;99.90;;;;;;5074019;28;20238;-76
2021/01/08 11:13:54;;;;;;;21.40;11.17;;;5.60;99.90;;;;;;5066002;28;20679;-75
2021/01/08 11:16:21;;;;;;;20.97;11.47;;;5.60;99.90;;;;;;5054393;28;20288;-76
2021/01/08 11:18:48;;;;;;;21.90;10.37;;;5.60;99.90;;;;;;5054244;28;20631;-75
2021/01/08 11:21:18;;;;;;;17.93;10.20;;;5.60;99.90;;;;;;5054177;28;20680;-76
2021/01/08 11:23:45;;;;;;;18.07;10.00;;;5.60;99.90;;;;;;5053961;28;20189;-76
2021/01/08 11:26:11;;;;;;;19.37;10.53;;;5.60;99.90;;;;;;5054334;28;20202;-76
2021/01/08 11:28:38;;;;;;;21.50;11.20;;;5.60;99.90;;;;;;5054538;28;20197;-75
2021/01/08 11:31:05;;;;;;;22.73;11.00;;;5.70;99.90;;;;;;5054525;28;20685;-76
2021/01/08 11:33:32;;;;;;;19.53;11.30;;;5.70;99.90;;;;;;5054602;28;20292;-76
2021/01/08 11:35:59;;;;;;;18.13;10.43;;;5.50;99.90;;;;;;5054775;28;20207;-76
2021/01/08 11:38:26;;;;;;;29.80;10.53;;;5.50;99.90;;;;;;5056230;28;20206;-76
2021/01/08 11:40:52;;;;;;;18.00;10.90;;;5.50;99.90;;;;;;5055052;28;20222;-76
2021/01/08 11:43:18;;;;;;;20.50;10.70;;;5.60;99.90;;;;;;5054777;28;20200;-76
2021/01/08 11:45:45;;;;;;;22.20;11.43;;;5.60;99.90;;;;;;5058273;28;20200;-76
2021/01/08 11:48:12;;;;;;;20.20;11.13;;;5.60;99.90;;;;;;5075921;28;20584;-76
2021/01/08 11:50:39;;;;;;;26.03;11.60;;;5.70;99.90;;;;;;5073546;28;20201;-75
2021/01/08 11:53:05;;;;;;;18.27;10.53;;;5.90;99.90;;;;;;5055468;28;20239;-76
2021/01/08 11:55:32;;;;;;;22.00;10.63;;;6.00;99.90;;;;;;5075025;28;20204;-76
2021/01/08 11:57:58;;;;;;;22.03;9.20;;;6.10;99.90;;;;;;5055714;28;20216;-76
2021/01/08 12:00:24;;;;;;;18.33;9.37;;;6.30;99.90;;;;;;5054726;28;20204;-76
2021/01/08 12:02:51;;;;;;;16.33;9.33;;;6.40;99.90;;;;;;5053584;28;20206;-76
2021/01/08 12:05:17;;;;;;;20.70;10.53;;;6.40;99.90;;;;;;5067077;28;20204;-75
2021/01/08 12:07:44;;;;;;;16.07;8.97;;;6.40;99.90;;;;;;5073315;28;20209;-75
2021/01/08 12:10:11;;;;;;;16.33;9.27;;;6.40;99.90;;;;;;5054419;28;20296;-76
2021/01/08 12:12:37;;;;;;;16.77;8.97;;;6.40;99.90;;;;;;5061477;28;20712;-75
2021/01/08 12:15:05;;;;;;;17.13;8.60;;;6.40;99.90;;;;;;5073629;28;20204;-76
2021/01/08 12:17:31;;;;;;;18.63;8.70;;;6.50;99.90;;;;;;5058541;28;20233;-76
2021/01/08 12:19:57;;;;;;;14.20;8.63;;;6.30;99.90;;;;;;5069710;28;20208;-76
2021/01/08 12:22:23;;;;;;;16.60;8.47;;;6.30;99.90;;;;;;5063462;28;20288;-76
2021/01/08 12:24:50;;;;;;;16.17;8.57;;;6.50;99.90;;;;;;5062357;28;20246;-76
2021/01/08 12:27:17;;;;;;;15.07;7.87;;;6.50;99.90;;;;;;5059916;28;20217;-75
2021/01/08 12:29:44;;;;;;;15.63;8.37;;;6.60;99.90;;;;;;5069759;28;20205;-76
2021/01/08 12:32:10;;;;;;;16.93;7.97;;;6.60;99.90;;;;;;5052851;28;20218;-76
2021/01/08 12:34:36;;;;;;;14.60;7.93;;;6.50;99.90;;;;;;5060535;28;20257;-76
2021/01/08 12:37:04;;;;;;;13.73;8.03;;;6.70;99.90;;;;;;5072710;28;20207;-76
2021/01/08 12:39:33;;;;;;;15.07;7.90;;;6.90;99.90;;;;;;5057455;28;20701;-76
2021/01/08 12:42:01;;;;;;;15.20;8.37;;;7.10;99.90;;;;;;5072003;28;20209;-76
2021/01/08 12:44:35;;;;;;;12.73;7.90;;;7.20;99.90;;;;;;5099906;27;1529898;-75
2021/01/08 12:47:02;;;;;;;14.17;8.47;;;7.20;99.90;;;;;;5119325;28;20786;-75